createdAt,value
2017-12-16T00:01:10.932Z,3.60
2017-12-16T00:03:39.666Z,3.62
2017-12-16T00:06:08.361Z,5.10
2017-12-16T00:08:37.022Z,4.18
2017-12-16T00:11:06.518Z,4.78
2017-12-16T00:13:35.963Z,3.85
2017-12-16T00:16:04.321Z,3.97
2017-12-16T00:18:33.203Z,5.43
2017-12-16T00:21:02.682Z,6.28
2017-12-16T00:23:31.370Z,4.32
2017-12-16T00:26:00.127Z,3.50
2017-12-16T00:28:28.867Z,4.22
2017-12-16T00:30:57.840Z,5.97
2017-12-16T00:33:26.221Z,4.93
2017-12-16T00:35:54.910Z,6.68
2017-12-16T00:38:23.598Z,8.20
2017-12-16T00:40:52.292Z,7.10
2017-12-16T00:43:20.950Z,6.47
2017-12-16T00:45:49.601Z,5.82
2017-12-16T00:48:18.260Z,6.97
2017-12-16T00:50:47.686Z,7.85
2017-12-16T00:53:16.431Z,5.87
2017-12-16T00:55:45.102Z,6.65
2017-12-16T00:58:13.800Z,6.10
2017-12-16T01:00:42.482Z,6.45
2017-12-16T01:03:11.374Z,9.00
2017-12-16T01:05:40.077Z,9.68
2017-12-16T01:08:08.721Z,9.10
2017-12-16T01:10:37.071Z,9.23
2017-12-16T01:13:05.819Z,9.18
2017-12-16T01:15:34.516Z,4.82
2017-12-16T01:18:03.210Z,6.05
2017-12-16T01:20:31.915Z,6.37
2017-12-16T01:23:01.377Z,5.15
2017-12-16T01:25:30.057Z,10.93
2017-12-16T01:27:58.795Z,6.15
2017-12-16T01:30:28.210Z,4.70
2017-12-16T01:32:56.918Z,6.53
2017-12-16T01:35:50.453Z,5.93
2017-12-16T01:38:28.866Z,5.47
2017-12-16T01:40:57.654Z,9.13
2017-12-16T01:43:26.014Z,10.05
2017-12-16T01:45:54.585Z,5.43
2017-12-16T01:48:23.335Z,5.90
2017-12-16T01:50:51.683Z,9.88
2017-12-16T01:53:20.028Z,17.30
2017-12-16T01:55:49.486Z,8.27
2017-12-16T01:58:17.517Z,5.90
2017-12-16T02:00:45.501Z,7.72
2017-12-16T02:03:13.881Z,7.35
2017-12-16T02:05:42.676Z,10.02
2017-12-16T02:08:11.775Z,4.80
2017-12-16T02:10:40.950Z,11.68
2017-12-16T02:13:08.965Z,7.60
2017-12-16T02:15:37.648Z,6.97
2017-12-16T02:18:06.593Z,9.95
2017-12-16T02:20:34.734Z,6.50
2017-12-16T02:23:02.768Z,10.32
2017-12-16T02:25:31.606Z,11.68
2017-12-16T02:28:00.414Z,9.82
2017-12-16T02:30:28.427Z,12.68
2017-12-16T02:32:56.515Z,12.27
2017-12-16T02:35:24.542Z,12.63
2017-12-16T02:37:52.583Z,12.23
2017-12-16T02:40:20.692Z,10.13
2017-12-16T02:42:49.481Z,9.75
2017-12-16T02:45:17.521Z,9.30
2017-12-16T02:47:46.115Z,8.15
2017-12-16T02:50:14.165Z,13.55
2017-12-16T02:52:42.164Z,8.13
2017-12-16T02:55:10.485Z,6.30
2017-12-16T02:57:38.556Z,7.15
2017-12-16T03:00:07.327Z,7.70
2017-12-16T03:02:35.897Z,4.22
2017-12-16T03:05:03.914Z,5.30
2017-12-16T03:07:31.975Z,7.00
2017-12-16T03:09:59.988Z,6.50
2017-12-16T03:12:28.051Z,8.30
2017-12-16T03:14:56.745Z,7.32
2017-12-16T03:17:25.033Z,7.85
2017-12-16T03:19:53.102Z,7.78
2017-12-16T03:22:21.130Z,7.15
2017-12-16T03:24:50.142Z,6.25
2017-12-16T03:27:18.167Z,5.50
2017-12-16T03:29:46.423Z,6.05
2017-12-16T03:32:14.482Z,10.40
2017-12-16T03:34:42.590Z,9.05
2017-12-16T03:37:10.864Z,7.30
2017-12-16T03:39:38.883Z,4.95
2017-12-16T03:42:06.904Z,7.50
2017-12-16T03:44:34.959Z,8.82
2017-12-16T03:47:02.954Z,4.68
2017-12-16T03:49:30.982Z,6.45
2017-12-16T03:51:59.548Z,6.50
2017-12-16T03:54:27.597Z,5.40
2017-12-16T03:56:57.024Z,7.35
2017-12-16T03:59:25.696Z,8.77
2017-12-16T04:01:53.745Z,11.93
2017-12-16T04:04:22.098Z,10.25
2017-12-16T04:06:50.795Z,7.57
2017-12-16T04:09:18.822Z,7.22
2017-12-16T04:11:47.174Z,11.77
2017-12-16T04:14:15.990Z,5.85
2017-12-16T04:16:44.602Z,7.82
2017-12-16T04:19:12.943Z,6.03
2017-12-16T04:21:41.338Z,6.72
2017-12-16T04:24:09.682Z,5.30
2017-12-16T04:26:38.545Z,7.95
2017-12-16T04:29:06.726Z,6.62
2017-12-16T04:31:34.798Z,4.45
2017-12-16T04:34:03.154Z,5.35
2017-12-16T04:36:31.165Z,4.28
2017-12-16T04:38:59.874Z,5.15
2017-12-16T04:41:28.217Z,9.10
2017-12-16T04:43:56.795Z,6.20
2017-12-16T04:46:25.771Z,5.70
2017-12-16T04:48:54.230Z,6.32
2017-12-16T04:51:22.934Z,7.00
2017-12-16T04:53:51.002Z,4.85
2017-12-16T04:56:19.075Z,4.40
2017-12-16T04:58:47.432Z,4.80
2017-12-16T05:01:15.505Z,4.20
2017-12-16T05:03:43.562Z,6.12
2017-12-16T05:06:11.629Z,5.28
2017-12-16T05:08:40.006Z,6.85
2017-12-16T05:11:09.134Z,3.80
2017-12-16T05:13:37.198Z,4.28
2017-12-16T05:16:05.230Z,9.35
2017-12-16T05:18:33.784Z,3.92
2017-12-16T05:21:01.887Z,4.60
2017-12-16T05:23:30.474Z,3.20
2017-12-16T05:25:59.097Z,4.30
2017-12-16T05:28:27.148Z,4.07
2017-12-16T05:30:55.966Z,5.47
2017-12-16T05:33:24.285Z,3.45
2017-12-16T05:35:52.330Z,6.30
2017-12-16T05:38:20.770Z,3.05
2017-12-16T05:40:49.546Z,5.03
2017-12-16T05:43:17.562Z,3.33
2017-12-16T05:45:45.989Z,4.75
2017-12-16T05:48:14.249Z,4.65
2017-12-16T05:50:42.306Z,7.12
2017-12-16T05:53:10.330Z,5.12
2017-12-16T05:55:38.594Z,2.85
2017-12-16T05:58:06.602Z,5.45
2017-12-16T06:00:34.977Z,3.67
2017-12-16T06:03:03.021Z,3.40
2017-12-16T06:05:31.013Z,5.45
2017-12-16T06:08:00.200Z,3.10
2017-12-16T06:10:29.005Z,2.92
2017-12-16T06:12:58.481Z,2.70
2017-12-16T06:15:26.555Z,1.90
2017-12-16T06:17:54.919Z,2.60
2017-12-16T06:20:22.975Z,3.50
2017-12-16T06:22:51.347Z,7.90
2017-12-16T06:25:19.391Z,8.82
2017-12-16T06:27:47.847Z,13.45
2017-12-16T06:30:16.649Z,12.00
2017-12-16T06:32:45.765Z,7.10
2017-12-16T06:35:13.813Z,5.30
2017-12-16T06:37:42.596Z,6.28
2017-12-16T06:40:11.395Z,7.15
2017-12-16T06:42:40.201Z,4.43
2017-12-16T06:45:08.227Z,5.95
2017-12-16T06:47:36.573Z,8.70
2017-12-16T06:50:04.588Z,5.37
2017-12-16T06:52:32.644Z,5.97
2017-12-16T06:55:00.694Z,6.43
2017-12-16T06:57:28.718Z,7.07
2017-12-16T06:59:57.561Z,6.25
2017-12-16T07:02:25.917Z,4.22
2017-12-16T07:04:54.610Z,7.00
2017-12-16T07:07:22.966Z,4.68
2017-12-16T07:09:51.356Z,11.07
2017-12-16T07:12:19.402Z,6.35
2017-12-16T07:14:48.930Z,7.75
2017-12-16T07:17:17.484Z,6.22
2017-12-16T07:19:46.275Z,8.65
2017-12-16T07:22:14.907Z,9.60
2017-12-16T07:24:43.295Z,7.12
2017-12-16T07:27:11.659Z,10.88
2017-12-16T07:29:40.222Z,9.10
2017-12-16T07:32:09.037Z,7.53
2017-12-16T07:34:37.400Z,4.28
2017-12-16T07:37:06.177Z,7.60
2017-12-16T07:39:34.855Z,6.30
2017-12-16T07:42:04.349Z,4.95
2017-12-16T07:44:33.044Z,8.30
2017-12-16T07:47:01.737Z,7.43
2017-12-16T07:49:30.460Z,5.30
2017-12-16T07:51:59.598Z,6.20
2017-12-16T07:54:28.381Z,12.02
2017-12-16T07:56:57.074Z,6.15
2017-12-16T07:59:25.774Z,9.70
2017-12-16T08:01:54.597Z,12.15
2017-12-16T08:04:22.673Z,11.75
2017-12-16T08:06:51.381Z,8.75
2017-12-16T08:09:20.098Z,10.68
2017-12-16T08:11:48.838Z,7.87
2017-12-16T08:14:17.736Z,14.07
2017-12-16T08:16:46.443Z,9.68
2017-12-16T08:19:15.351Z,11.52
2017-12-16T08:24:17.988Z,14.90
2017-12-16T08:26:46.752Z,12.65
2017-12-16T08:29:16.213Z,14.45
2017-12-16T08:31:44.946Z,10.77
2017-12-16T08:34:13.671Z,10.45
2017-12-16T08:36:42.653Z,10.20
2017-12-16T08:39:12.275Z,14.80
2017-12-16T08:41:40.987Z,11.15
2017-12-16T08:44:09.737Z,10.57
2017-12-16T08:46:39.259Z,10.48
2017-12-16T08:49:08.217Z,8.57
2017-12-16T08:51:37.155Z,11.35
2017-12-16T08:54:06.075Z,13.07
2017-12-16T08:56:34.810Z,11.43
2017-12-16T08:59:04.213Z,9.77
2017-12-16T09:01:33.927Z,19.98
2017-12-16T09:04:02.693Z,66.30
2017-12-16T09:06:32.478Z,47.17
2017-12-16T09:09:01.237Z,49.10
2017-12-16T09:11:30.207Z,52.62
2017-12-16T09:13:59.101Z,44.13
2017-12-16T09:16:28.078Z,43.13
2017-12-16T09:18:56.823Z,33.83
2017-12-16T09:21:26.007Z,26.25
2017-12-16T09:23:55.009Z,18.15
2017-12-16T09:26:23.972Z,24.33
2017-12-16T09:28:52.934Z,28.10
2017-12-16T09:31:21.692Z,25.45
2017-12-16T09:33:50.731Z,28.35
2017-12-16T09:36:20.538Z,32.55
2017-12-16T09:38:49.489Z,15.75
2017-12-16T09:41:18.421Z,16.08
2017-12-16T09:43:47.159Z,15.27
2017-12-16T09:46:15.997Z,13.25
2017-12-16T09:48:44.999Z,27.67
2017-12-16T09:51:14.749Z,10.15
2017-12-16T09:53:43.648Z,11.73
2017-12-16T09:56:12.433Z,31.27
2017-12-16T09:58:41.379Z,18.92
2017-12-16T10:01:10.738Z,13.67
2017-12-16T10:03:40.266Z,11.10
2017-12-16T10:06:08.698Z,11.90
2017-12-16T10:08:36.509Z,10.90
2017-12-16T10:11:05.932Z,7.30
2017-12-16T10:13:34.380Z,7.57
2017-12-16T10:16:03.073Z,6.27
2017-12-16T10:18:32.378Z,7.70
2017-12-16T10:21:00.840Z,6.80
2017-12-16T10:23:29.366Z,4.60
2017-12-16T10:25:58.098Z,4.13
2017-12-16T10:28:26.586Z,4.83
2017-12-16T10:30:55.067Z,5.70
2017-12-16T10:33:23.543Z,5.00
2017-12-16T10:35:51.798Z,4.90
2017-12-16T10:38:20.318Z,4.47
2017-12-16T10:40:48.801Z,3.50
2017-12-16T10:43:17.448Z,3.37
2017-12-16T10:45:45.929Z,3.43
2017-12-16T10:48:14.311Z,4.13
2017-12-16T10:50:42.786Z,3.30
2017-12-16T10:53:11.487Z,3.20
2017-12-16T10:55:39.833Z,1.83
2017-12-16T10:58:08.320Z,2.53
2017-12-16T11:00:36.899Z,2.00
2017-12-16T11:03:06.129Z,2.57
2017-12-16T11:05:34.562Z,8.97
2017-12-16T11:08:03.053Z,9.33
2017-12-16T11:10:34.526Z,11.00
2017-12-16T11:13:02.966Z,6.27
2017-12-16T11:15:31.456Z,3.97
2017-12-16T11:17:59.579Z,5.03
2017-12-16T11:20:29.736Z,2.33
2017-12-16T11:22:58.774Z,3.83
2017-12-16T11:25:28.149Z,2.50
2017-12-16T11:27:56.789Z,3.80
2017-12-16T11:30:25.660Z,2.80
2017-12-16T11:32:54.387Z,4.60
2017-12-16T11:35:23.009Z,3.10
2017-12-16T11:37:51.653Z,3.00
2017-12-16T11:40:20.159Z,4.37
2017-12-16T11:42:48.646Z,3.17
2017-12-16T11:45:17.055Z,3.50
2017-12-16T11:47:46.264Z,4.27
2017-12-16T11:50:15.497Z,3.40
2017-12-16T11:52:43.962Z,4.23
2017-12-16T11:55:13.229Z,2.60
2017-12-16T11:57:42.442Z,4.03
2017-12-16T12:00:11.302Z,2.63
2017-12-16T12:02:39.771Z,2.27
2017-12-16T12:05:08.175Z,2.07
2017-12-16T12:07:36.614Z,13.63
2017-12-16T12:10:05.082Z,3.93
2017-12-16T12:12:33.498Z,2.57
2017-12-16T12:15:01.962Z,2.10
2017-12-16T12:17:30.449Z,2.80
2017-12-16T12:20:02.037Z,2.03
2017-12-16T12:22:31.280Z,2.57
2017-12-16T12:24:59.878Z,1.27
2017-12-16T12:27:28.303Z,7.30
2017-12-16T12:29:56.986Z,2.63
2017-12-16T12:32:25.425Z,2.97
2017-12-16T12:34:53.910Z,4.10
2017-12-16T12:37:22.420Z,3.23
2017-12-16T12:39:51.013Z,4.23
2017-12-16T12:42:19.897Z,1.30
2017-12-16T12:44:49.619Z,2.20
2017-12-16T12:47:18.316Z,2.73
2017-12-16T12:49:47.884Z,3.00
2017-12-16T12:52:16.479Z,2.10
2017-12-16T12:54:45.380Z,2.47
2017-12-16T12:57:15.062Z,3.23
2017-12-16T12:59:43.759Z,2.77
2017-12-16T13:02:12.486Z,4.90
2017-12-16T13:04:42.682Z,2.40
2017-12-16T13:07:12.395Z,2.40
2017-12-16T13:09:40.965Z,3.03
2017-12-16T13:12:10.278Z,5.00
2017-12-16T13:14:38.713Z,2.57
2017-12-16T13:17:07.169Z,3.17
2017-12-16T13:19:36.431Z,3.63
2017-12-16T13:22:11.916Z,4.33
2017-12-16T13:24:42.137Z,3.70
2017-12-16T13:27:10.952Z,3.87
2017-12-16T13:29:39.839Z,3.97
2017-12-16T13:32:10.415Z,3.67
2017-12-16T13:34:39.030Z,2.80
2017-12-16T13:37:08.060Z,3.60
2017-12-16T13:39:36.546Z,4.00
2017-12-16T13:42:04.956Z,4.53
2017-12-16T13:44:33.456Z,3.93
2017-12-16T13:47:01.927Z,4.27
2017-12-16T13:49:30.334Z,3.17
2017-12-16T13:51:58.818Z,4.20
2017-12-16T13:54:27.533Z,4.45
2017-12-16T13:56:56.259Z,3.20
2017-12-16T13:59:25.961Z,4.65
2017-12-16T14:01:55.445Z,3.35
2017-12-16T14:04:24.335Z,3.40
2017-12-16T14:06:53.053Z,4.35
2017-12-16T14:09:22.503Z,3.67
2017-12-16T14:11:51.474Z,3.95
2017-12-16T14:14:20.196Z,2.15
2017-12-16T14:16:48.902Z,2.72
2017-12-16T14:19:17.589Z,3.00
2017-12-16T14:21:46.319Z,3.40
2017-12-16T14:24:15.003Z,15.25
2017-12-16T14:26:44.055Z,3.53
2017-12-16T14:29:12.860Z,2.47
2017-12-16T14:31:41.690Z,3.33
2017-12-16T14:34:10.370Z,4.15
2017-12-16T14:36:39.118Z,6.43
2017-12-16T14:39:07.516Z,7.05
2017-12-16T14:41:35.617Z,3.30
2017-12-16T14:44:04.324Z,4.43
2017-12-16T14:46:32.913Z,6.57
2017-12-16T14:49:01.382Z,4.70
2017-12-16T14:51:30.104Z,6.37
2017-12-16T14:53:58.794Z,4.25
2017-12-16T14:56:27.513Z,16.30
2017-12-16T14:58:56.211Z,20.40
2017-12-16T15:01:24.914Z,12.82
2017-12-16T15:03:53.679Z,14.25
2017-12-16T15:06:23.363Z,12.40
2017-12-16T15:08:52.058Z,7.25
2017-12-16T15:11:21.549Z,12.43
2017-12-16T15:13:51.015Z,15.43
2017-12-16T15:16:19.779Z,16.37
2017-12-16T15:18:48.524Z,20.30
2017-12-16T15:21:17.235Z,17.12
2017-12-16T15:23:46.753Z,12.25
2017-12-16T15:26:15.505Z,10.05
2017-12-16T15:28:44.256Z,11.68
2017-12-16T15:31:12.943Z,20.40
2017-12-16T15:33:41.871Z,16.90
2017-12-16T15:36:10.558Z,9.93
2017-12-16T15:38:39.274Z,9.50
2017-12-16T15:41:08.096Z,11.88
2017-12-16T15:43:37.891Z,10.00
2017-12-16T15:46:07.155Z,15.23
2017-12-16T15:48:35.918Z,28.80
2017-12-16T15:51:04.616Z,27.08
2017-12-16T15:53:33.329Z,13.95
2017-12-16T15:56:05.958Z,14.15
2017-12-16T15:58:34.712Z,11.55
2017-12-16T16:01:03.881Z,7.35
2017-12-16T16:03:32.574Z,8.13
2017-12-16T16:06:01.288Z,6.97
2017-12-16T16:08:31.433Z,6.90
2017-12-16T16:11:00.363Z,7.93
2017-12-16T16:13:29.884Z,7.90
2017-12-16T16:15:58.644Z,11.95
2017-12-16T16:18:27.288Z,10.38
2017-12-16T16:20:55.986Z,12.13
2017-12-16T16:23:24.718Z,9.27
2017-12-16T16:25:53.418Z,9.15
2017-12-16T16:28:22.143Z,8.85
2017-12-16T16:30:50.909Z,11.57
2017-12-16T16:33:19.674Z,13.18
2017-12-16T16:35:48.391Z,10.45
2017-12-16T16:38:17.188Z,10.48
2017-12-16T16:40:46.670Z,8.48
2017-12-16T16:43:15.430Z,10.10
2017-12-16T16:45:44.249Z,8.50
2017-12-16T16:48:12.947Z,10.60
2017-12-16T16:50:41.647Z,10.98
2017-12-16T16:53:11.141Z,7.70
2017-12-16T16:55:40.134Z,10.40
2017-12-16T16:58:09.658Z,10.30
2017-12-16T17:00:38.580Z,9.43
2017-12-16T17:03:07.487Z,10.77
2017-12-16T17:05:36.205Z,12.85
2017-12-16T17:08:05.109Z,10.38
2017-12-16T17:10:34.614Z,9.10
2017-12-16T17:13:04.163Z,9.70
2017-12-16T17:15:32.898Z,8.77
2017-12-16T17:18:01.624Z,8.70
2017-12-16T17:20:30.321Z,8.77
2017-12-16T17:22:59.100Z,10.00
2017-12-16T17:25:27.774Z,10.10
2017-12-16T17:27:57.503Z,7.35
2017-12-16T17:30:26.318Z,10.43
2017-12-16T17:32:55.056Z,7.87
2017-12-16T17:35:23.821Z,7.87
2017-12-16T17:37:52.229Z,7.30
2017-12-16T17:40:21.701Z,9.77
2017-12-16T17:42:50.397Z,23.83
2017-12-16T17:45:19.130Z,22.13
2017-12-16T17:47:47.470Z,28.00
2017-12-16T17:50:15.837Z,18.58
2017-12-16T17:52:44.531Z,17.95
2017-12-16T17:55:13.211Z,16.05
2017-12-16T17:57:41.543Z,9.88
2017-12-16T18:00:09.941Z,14.68
2017-12-16T18:02:38.663Z,16.50
2017-12-16T18:05:07.591Z,16.42
2017-12-16T18:07:35.961Z,10.02
2017-12-16T18:10:04.704Z,8.35
2017-12-16T18:12:33.401Z,15.60
2017-12-16T18:15:02.190Z,18.95
2017-12-16T18:17:30.883Z,21.92
2017-12-16T18:19:59.580Z,25.50
2017-12-16T18:22:28.315Z,19.45
2017-12-16T18:24:57.059Z,22.87
2017-12-16T18:27:25.409Z,27.52
2017-12-16T18:29:54.111Z,25.48
2017-12-16T18:32:22.815Z,24.00
2017-12-16T18:34:51.497Z,29.80
2017-12-16T18:37:20.199Z,26.02
2017-12-16T18:39:48.907Z,10.73
2017-12-16T18:42:17.592Z,13.40
2017-12-16T18:44:50.588Z,8.90
2017-12-16T18:47:19.360Z,8.85
2017-12-16T18:49:48.061Z,8.15
2017-12-16T18:52:16.768Z,8.50
2017-12-16T18:54:45.438Z,14.18
2017-12-16T18:57:13.813Z,21.75
2017-12-16T18:59:42.530Z,22.90
2017-12-16T19:02:11.228Z,19.05
2017-12-16T19:04:39.914Z,26.70
2017-12-16T19:07:08.757Z,22.50
2017-12-16T19:09:37.459Z,25.95
2017-12-16T19:12:06.172Z,21.77
2017-12-16T19:14:34.996Z,25.52
2017-12-16T19:17:03.662Z,19.55
2017-12-16T19:19:32.365Z,21.20
2017-12-16T19:22:01.099Z,16.05
2017-12-16T19:24:29.820Z,17.25
2017-12-16T19:26:58.513Z,14.32
2017-12-16T19:29:27.246Z,13.20
2017-12-16T19:31:55.976Z,13.68
2017-12-16T19:34:24.706Z,15.70
2017-12-16T19:36:54.222Z,19.65
2017-12-16T19:39:23.713Z,15.02
2017-12-16T19:41:52.693Z,16.62
2017-12-16T19:44:21.414Z,17.85
2017-12-16T19:46:49.855Z,16.65
2017-12-16T19:49:18.552Z,16.30
2017-12-16T19:51:47.275Z,19.37
2017-12-16T19:54:16.737Z,18.52
2017-12-16T19:56:45.409Z,19.23
2017-12-16T19:59:14.218Z,24.48
2017-12-16T20:01:43.055Z,22.45
2017-12-16T20:04:11.750Z,19.33
2017-12-16T20:06:40.417Z,16.37
2017-12-16T20:09:09.892Z,21.33
2017-12-16T20:11:38.774Z,21.40
2017-12-16T20:14:06.790Z,16.40
2017-12-16T20:16:36.261Z,20.83
2017-12-16T20:19:04.631Z,21.05
2017-12-16T20:21:33.330Z,19.12
2017-12-16T20:24:02.052Z,17.37
2017-12-16T20:26:30.748Z,15.60
2017-12-16T20:28:59.423Z,13.05
2017-12-16T20:31:28.908Z,17.90
2017-12-16T20:33:57.573Z,13.85
2017-12-16T20:36:26.249Z,21.10
2017-12-16T20:38:54.953Z,16.33
2017-12-16T20:41:23.645Z,15.75
2017-12-16T20:43:52.631Z,25.20
2017-12-16T20:46:21.533Z,17.50
2017-12-16T20:48:49.530Z,14.52
2017-12-16T20:51:18.953Z,15.63
2017-12-16T20:53:47.665Z,11.40
2017-12-16T20:56:16.326Z,14.57
2017-12-16T20:58:45.207Z,11.25
2017-12-16T21:01:14.673Z,18.02
2017-12-16T21:03:43.350Z,19.45
2017-12-16T21:06:12.042Z,13.30
2017-12-16T21:08:40.767Z,13.85
2017-12-16T21:11:09.466Z,14.00
2017-12-16T21:13:38.166Z,10.70
2017-12-16T21:16:06.857Z,11.35
2017-12-16T21:18:35.603Z,11.85
2017-12-16T21:21:03.983Z,10.68
2017-12-16T21:23:32.669Z,14.27
2017-12-16T21:26:01.394Z,11.70
2017-12-16T21:28:30.081Z,16.02
2017-12-16T21:30:58.525Z,16.73
2017-12-16T21:33:27.281Z,16.10
2017-12-16T21:35:55.885Z,17.90
2017-12-16T21:38:24.692Z,17.77
2017-12-16T21:40:53.498Z,23.23
2017-12-16T21:43:22.318Z,23.08
2017-12-16T21:45:51.123Z,20.25
2017-12-16T21:48:20.000Z,16.40
2017-12-16T21:50:48.895Z,17.77
2017-12-16T21:53:18.533Z,16.48
2017-12-16T21:55:49.104Z,15.05
2017-12-16T21:58:19.409Z,15.80
2017-12-16T22:00:51.639Z,18.42
2017-12-16T22:03:24.238Z,22.77
2017-12-16T22:06:03.281Z,21.85
2017-12-16T22:08:32.106Z,18.52
2017-12-16T22:11:01.719Z,26.30
2017-12-16T22:13:30.516Z,20.10
2017-12-16T22:18:35.382Z,14.65
2017-12-16T22:21:04.496Z,15.63
2017-12-16T22:23:34.183Z,16.48
2017-12-16T22:26:04.560Z,18.75
2017-12-16T22:28:33.327Z,18.58
2017-12-16T22:31:02.324Z,14.95
2017-12-16T22:33:31.960Z,14.43
2017-12-16T22:36:02.277Z,12.60
2017-12-16T22:38:31.155Z,14.20
2017-12-16T22:40:59.634Z,14.45
2017-12-16T22:43:28.403Z,15.18
2017-12-16T22:45:57.148Z,16.20
2017-12-16T22:48:25.964Z,15.77
2017-12-16T22:50:54.806Z,14.85
2017-12-16T22:53:24.746Z,12.77
2017-12-16T22:55:53.141Z,13.68
2017-12-16T22:58:21.961Z,13.77
2017-12-16T23:00:50.748Z,18.37
2017-12-16T23:03:20.074Z,14.57
2017-12-16T23:05:49.322Z,13.77
2017-12-16T23:08:18.044Z,18.50
2017-12-16T23:10:46.231Z,12.23
2017-12-16T23:13:14.391Z,15.70
2017-12-16T23:15:42.789Z,13.10
2017-12-16T23:18:11.216Z,14.95
2017-12-16T23:20:40.456Z,13.68
2017-12-16T23:23:09.021Z,12.55
2017-12-16T23:25:37.837Z,23.58
2017-12-16T23:28:06.878Z,11.50
2017-12-16T23:30:35.122Z,15.60
2017-12-16T23:33:03.839Z,13.57
2017-12-16T23:35:32.249Z,13.75
2017-12-16T23:38:01.116Z,11.93
2017-12-16T23:40:29.317Z,13.93
2017-12-16T23:42:57.901Z,10.70
2017-12-16T23:45:26.151Z,12.07
2017-12-16T23:47:54.309Z,13.07
2017-12-16T23:50:22.911Z,10.45
2017-12-16T23:52:51.911Z,9.35
2017-12-16T23:55:20.030Z,9.88
2017-12-16T23:57:48.230Z,9.88
